Latest Weather Observations for Parafield

IDS60901

Issued at 9:01 pm CDT Friday 13 December 2019 (issued every 10 minutes, with the page automatically refreshed every 10 minutes)

About weather observations | Map of Adelaide area stations | Latest observations for Adelaide area | Other Formats
Station Details ID: 023013 Name: PARAFIELD AIRPORT Lat: -34.80 Lon: 138.63 Height: 9.5 m
Data from the previous 72 hours. | See also: Recent months at Parafield
Date/Time
CDT
Temp
°C
App
Temp
°C
Dew
Point
°C
Rel
Hum
%
Delta-T
°C
Wind Press
QNH
hPa
Press
MSL
hPa
Rain since
9am
mm
Dir  Spd
km/h
Gust
km/h
Spd
kts
Gust
kts
13/09:00pm 16.9 13.5 10.5 66 3.4 SSW 19 24 10 13 1019.6 1019.6 0.0
13/08:30pm 17.3 13.9 11.3 68 3.2 SW 20 26 11 14 1019.4 1019.4 0.0
13/08:00pm 17.7 13.5 11.0 65 3.6 SW 24 32 13 17 1019.4 1019.4 0.0
13/07:30pm 18.6 13.7 11.2 62 4.0 SW 28 37 15 20 1019.4 1019.4 0.0
13/07:00pm 19.1 14.1 10.9 59 4.5 SW 28 37 15 20 1019.1 1019.1 0.0
13/06:30pm 19.8 14.7 10.5 55 5.0 SW 28 37 15 20 1018.9 1018.9 0.0
13/06:00pm 20.0 14.8 10.4 54 5.2 SW 28 39 15 21 1019.0 1019.0 0.0
13/05:30pm 20.3 15.3 9.5 50 5.7 SW 26 39 14 21 1019.1 1019.1 0.0
13/05:00pm 20.6 14.7 9.2 48 6.0 SW 30 37 16 20 1019.3 1019.3 0.0
13/04:30pm 21.5 16.3 8.7 44 6.7 SW 26 35 14 19 1019.5 1019.5 0.0
13/04:00pm 21.7 17.0 9.3 45 6.6 SW 24 35 13 19 1019.8 1019.8 0.0
13/03:30pm 21.3 16.2 9.2 46 6.4 SW 26 35 14 19 1020.1 1020.1 0.0
13/03:00pm 21.1 16.6 8.4 44 6.6 SW 22 30 12 16 1020.3 1020.3 0.0
13/02:30pm 22.2 17.9 9.4 44 6.9 SW 22 35 12 19 1020.4 1020.4 0.0
13/02:00pm 21.3 17.1 8.2 43 6.8 SW 20 28 11 15 1020.6 1020.6 0.0
13/01:30pm 21.9 17.8 8.8 43 6.9 WSW 20 28 11 15 1020.8 1020.8 0.0
13/01:00pm 21.8 17.6 8.3 42 7.1 SW 20 35 11 19 1021.1 1021.1 0.0
13/12:30pm 20.9 16.5 7.2 41 7.0 WSW 20 28 11 15 1021.4 1021.4 0.0
13/12:00pm 20.7 15.8 8.4 45 6.4 WSW 24 35 13 19 1021.7 1021.6 0.0
13/11:30am 20.6 17.2 7.6 43 6.7 SSW 15 26 8 14 1021.8 1021.7 0.0
13/11:00am 19.8 15.4 7.2 44 6.4 SW 20 33 11 18 1021.9 1021.8 0.0
13/10:30am 19.3 15.2 6.1 42 6.5 SW 17 28 9 15 1022.2 1022.1 0.0
13/10:00am 18.8 15.8 6.0 43 6.3 SSW 11 17 6 9 1022.4 1022.3 0.0
13/09:30am 17.9 14.3 6.7 48 5.5 SW 15 20 8 11 1022.6 1022.5 0.0
13/09:00am 17.6 13.7 7.1 50 5.2 S 17 26 9 14 1022.9 1022.8 0.0
13/08:30am 17.0 13.5 7.4 53 4.8 S 15 22 8 12 1022.9 1022.8 0.0
13/08:00am 15.7 11.7 6.7 55 4.4 SSW 17 24 9 13 1022.7 1022.6 0.0
13/07:30am 15.6 12.1 7.4 58 4.1 SSE 15 20 8 11 1022.3 1022.2 0.0
13/07:00am 14.0 13.5 7.8 66 3.1 CALM 0 6 0 3 1022.1 1022.0 0.0
13/06:30am 12.4 9.9 6.5 67 2.8 S 9 11 5 6 1021.8 1021.7 0.0
13/06:00am 13.6 10.0 6.7 63 3.3 S 15 20 8 11 1021.9 1021.8 0.0
13/05:30am 13.9 10.4 7.2 64 3.3 S 15 20 8 11 1021.7 1021.6 0.0
13/05:00am 13.0 11.3 7.7 70 2.6 SSE 6 9 3 5 1022.0 1021.9 0.0
13/04:30am 10.8 8.7 6.7 76 1.9 S 7 7 4 4 1021.8 1021.7 0.0
13/04:00am 11.7 9.8 7.4 75 2.1 SE 7 9 4 5 1021.7 1021.6 0.0
13/03:30am 11.0 8.1 6.7 75 2.0 S 11 13 6 7 1021.8 1021.7 0.0
13/03:00am 12.2 9.2 7.7 74 2.2 SSW 13 19 7 10 1022.0 1021.9 0.0
13/02:30am 11.4 8.7 7.3 76 2.0 SSW 11 15 6 8 1022.3 1022.2 0.0
13/02:00am 11.4 9.0 6.9 74 2.1 SSW 9 9 5 5 1022.4 1022.3 0.0
13/01:30am 11.8 8.7 7.1 73 2.2 S 13 15 7 8 1022.6 1022.5 0.0
13/01:00am 13.0 9.2 7.7 70 2.6 SSW 17 24 9 13 1023.0 1022.9 0.0
13/12:30am 13.4 9.7 7.8 69 2.7 SSW 17 22 9 12 1023.1 1023.0 0.0
13/12:00am 13.3 9.5 7.5 68 2.8 SSW 17 20 9 11 1023.5 1023.4 0.0
 
Date/Time
CDT
Temp
°C
App
Temp
°C
Dew
Point
°C
Rel
Hum
%
Delta-T
°C
Wind Press
QNH
hPa
Press
MSL
hPa
Rain since
9am
mm
Dir  Spd
km/h
Gust
km/h
Spd
kts
Gust
kts
12/11:30pm 13.5 9.6 7.3 66 3.0 SSW 17 22 9 12 1023.7 1023.6 0.0
12/11:00pm 13.5 9.6 7.3 66 3.0 SSW 17 22 9 12 1023.5 1023.4 0.0
12/10:30pm 14.0 9.6 7.3 64 3.3 S 20 32 11 17 1023.2 1023.1 0.0
12/10:00pm 14.2 10.0 7.3 63 3.4 S 19 26 10 14 1023.2 1023.1 0.0
12/09:30pm 14.5 10.0 6.8 60 3.7 S 20 24 11 13 1023.0 1022.9 0.0
12/09:00pm 15.3 10.4 7.1 58 4.0 S 22 32 12 17 1022.6 1022.5 0.0
12/08:30pm 16.5 11.0 7.4 55 4.5 S 26 32 14 17 1022.4 1022.3 0.0
12/08:00pm 17.8 12.2 7.0 49 5.4 S 26 33 14 18 1022.1 1022.0 0.0
12/07:30pm 19.7 14.5 7.1 44 6.4 SSW 24 32 13 17 1021.3 1021.3 0.0
12/07:00pm 20.9 15.6 6.8 40 7.2 SSW 24 32 13 17 1021.0 1021.0 0.0
12/06:30pm 21.2 15.2 8.8 45 6.5 SW 30 39 16 21 1020.7 1020.7 0.0
12/06:00pm 21.4 15.2 8.0 42 7.0 SW 30 41 16 22 1020.4 1020.4 0.0
12/05:30pm 21.7 14.6 8.2 42 7.1 SW 35 46 19 25 1020.4 1020.4 0.0
12/05:00pm 21.7 14.8 8.9 44 6.8 SW 35 44 19 24 1020.3 1020.3 0.0
12/04:30pm 22.4 15.5 8.9 42 7.2 SW 35 46 19 25 1020.5 1020.5 0.0
12/04:00pm 22.6 15.7 8.7 41 7.4 SW 35 46 19 25 1020.6 1020.6 0.0
12/03:30pm 22.6 16.0 8.7 41 7.4 SW 33 41 18 22 1020.6 1020.6 0.0
12/03:00pm 24.1 17.6 8.9 38 8.2 SW 33 44 18 24 1020.5 1020.5 0.0
12/02:30pm 23.5 16.9 7.6 36 8.3 SW 32 44 17 24 1020.4 1020.4 0.0
12/02:00pm 24.3 19.1 8.7 37 8.4 SW 26 37 14 20 1020.4 1020.4 0.0
12/01:30pm 23.9 17.5 8.7 38 8.1 WSW 32 46 17 25 1020.5 1020.5 0.0
12/01:00pm 24.3 19.6 7.9 35 8.7 SSW 22 35 12 19 1021.0 1021.0 0.0
12/12:30pm 23.6 18.1 9.2 40 7.7 SW 28 41 15 22 1020.9 1020.9 0.0
12/12:00pm 23.5 19.0 6.3 33 8.8 S 19 32 10 17 1021.2 1021.2 0.0
12/11:30am 22.7 18.8 7.3 37 8.0 SSW 17 24 9 13 1021.5 1021.5 0.0
12/11:00am 22.1 18.0 7.9 40 7.4 SSE 19 32 10 17 1021.8 1021.7 0.0
12/10:30am 21.0 17.2 7.6 42 6.9 S 17 26 9 14 1022.0 1021.9 0.0
12/10:00am 20.9 16.9 8.2 44 6.6 SSW 19 30 10 16 1022.0 1021.9 0.0
12/09:30am 20.1 16.4 8.1 46 6.2 SSW 17 26 9 14 1022.1 1022.0 0.0
12/09:00am 19.4 15.4 9.0 51 5.4 SSW 20 28 11 15 1022.0 1021.9 0.0
12/08:30am 19.2 15.5 9.4 53 5.2 S 19 26 10 14 1022.0 1021.9 0.0
12/08:00am 18.0 15.1 9.6 58 4.4 S 15 24 8 13 1021.5 1021.5 0.0
12/07:30am 17.5 15.4 9.7 60 4.1 SSW 11 19 6 10 1021.2 1021.2 0.0
12/07:00am 16.7 12.9 8.9 60 4.0 S 19 28 10 15 1021.2 1021.2 0.0
12/06:30am 16.3 11.8 8.5 60 4.0 S 22 32 12 17 1021.1 1021.1 0.0
12/06:00am 16.0 12.0 9.2 64 3.5 SSE 20 28 11 15 1021.0 1021.0 0.0
12/05:30am 15.8 11.2 9.5 66 3.3 S 24 30 13 16 1020.5 1020.5 0.0
12/05:00am 15.8 12.2 9.9 68 3.1 S 19 24 10 13 1020.3 1020.3 0.0
12/04:30am 15.8 11.8 10.3 70 2.9 S 22 30 12 16 1020.0 1020.0 0.0
12/04:00am 15.6 12.0 10.4 71 2.7 S 20 26 11 14 1019.9 1019.9 0.0
12/03:30am 13.0 10.9 9.8 81 1.6 S 11 15 6 8 1020.1 1020.1 0.0
12/03:00am 12.4 10.1 8.9 79 1.7 S 11 13 6 7 1020.0 1020.0 0.0
12/02:30am 12.9 11.3 8.6 75 2.1 S 7 9 4 5 1020.3 1020.3 0.0
12/02:00am 13.4 11.9 9.1 75 2.2 S 7 9 4 5 1020.7 1020.7 0.0
12/01:30am 13.4 11.5 8.9 74 2.3 SSW 9 11 5 6 1020.8 1020.8 0.0
12/01:00am 13.4 11.0 8.7 73 2.4 SSW 11 15 6 8 1020.8 1020.8 0.0
12/12:30am 13.2 11.2 8.5 73 2.3 SSW 9 13 5 7 1021.1 1021.1 0.0
12/12:00am 13.3 11.2 8.4 72 2.4 S 9 11 5 6 1021.2 1021.2 0.0
 
Date/Time
CDT
Temp
°C
App
Temp
°C
Dew
Point
°C
Rel
Hum
%
Delta-T
°C
Wind Press
QNH
hPa
Press
MSL
hPa
Rain since
9am
mm
Dir  Spd
km/h
Gust
km/h
Spd
kts
Gust
kts
11/11:30pm 13.4 10.8 7.6 68 2.8 S 11 15 6 8 1021.0 1021.0 0.0
11/11:00pm 14.2 11.6 7.9 66 3.1 SSE 11 17 6 9 1020.9 1020.9 0.0
11/10:30pm 14.6 11.6 7.9 64 3.3 SSW 13 19 7 10 1020.8 1020.8 0.0
11/10:00pm 15.9 13.4 8.4 61 3.8 S 11 15 6 8 1020.3 1020.3 0.0
11/09:30pm 16.1 13.1 7.8 58 4.2 SSW 13 19 7 10 1019.9 1019.9 0.0
11/09:00pm 16.9 13.4 5.5 47 5.5 SSE 13 17 7 9 1019.7 1019.7 0.0
11/08:30pm 18.8 14.3 6.0 43 6.3 SSE 19 22 10 12 1019.3 1019.3 0.0
11/08:00pm 20.0 16.1 5.3 38 7.2 S 15 19 8 10 1019.0 1019.0 0.0
11/07:30pm 22.2 18.4 5.6 34 8.3 SSE 15 20 8 11 1018.6 1018.6 0.0
11/07:00pm 23.4 19.4 6.7 34 8.6 SSW 17 24 9 13 1018.1 1018.1 0.0
11/06:30pm 24.2 19.3 6.9 33 9.0 SSW 22 32 12 17 1017.7 1017.7 0.0
11/06:00pm 25.0 19.3 6.7 31 9.5 SSW 26 33 14 18 1017.5 1017.5 0.0
11/05:30pm 25.3 19.3 7.0 31 9.6 SSW 28 37 15 20 1017.3 1017.3 0.0
11/05:00pm 26.0 20.3 8.5 33 9.5 SW 28 39 15 21 1017.2 1017.2 0.0
11/04:30pm 25.8 19.3 8.3 33 9.4 SW 32 43 17 23 1017.3 1017.3 0.0
11/04:00pm 26.2 19.7 8.2 32 9.7 SW 32 43 17 23 1017.4 1017.4 0.0
11/03:30pm 26.3 19.6 7.4 30 10.0 SW 32 44 17 24 1017.4 1017.4 0.0
11/03:00pm 27.6 23.8 7.5 28 10.7 S 17 30 9 16 1017.7 1017.7 0.0
11/02:30pm 26.8 21.4 7.8 30 10.2 SW 26 39 14 21 1017.6 1017.6 0.0
11/02:13pm 27.8 24.2 6.6 26 11.2 SSW 15 41 8 22 1017.6 1017.6 0.0
11/02:00pm 27.0 23.5 5.3 25 11.1 ESE 13 19 7 10 1018.0 1018.0 0.0
11/01:30pm 26.3 23.8 4.7 25 10.9 N 7 11 4 6 1018.2 1018.2 0.0
11/01:00pm 25.3 22.1 5.0 27 10.3 S 11 17 6 9 1018.4 1018.4 0.0
11/12:30pm 25.9 23.3 6.0 28 10.3 ESE 9 17 5 9 1018.5 1018.5 0.0
11/12:00pm 24.4 21.1 6.6 32 9.2 E 13 20 7 11 1018.7 1018.7 0.0
11/11:30am 23.4 21.3 6.7 34 8.6 S 7 13 4 7 1019.0 1019.0 0.0
11/11:00am 22.5 19.6 6.7 36 8.1 SE 11 19 6 10 1019.1 1019.1 0.0
11/10:30am 20.9 18.5 7.2 41 7.0 SE 9 20 5 11 1019.3 1019.3 0.0
11/10:00am 20.1 17.7 7.1 43 6.6 S 9 15 5 8 1019.6 1019.6 0.0
11/09:30am 19.6 16.7 8.3 48 5.8 ESE 13 20 7 11 1019.6 1019.6 0.0
11/09:00am 18.2 14.0 7.6 50 5.4 ESE 19 26 10 14 1019.8 1019.8 0.0
11/08:30am 17.6 13.3 7.9 53 4.9 ESE 20 24 11 13 1019.6 1019.6 0.0
11/08:00am 17.1 13.6 8.8 58 4.3 SE 17 22 9 12 1019.5 1019.5 0.0
11/07:30am 16.7 16.2 9.4 62 3.8 E 2 7 1 4 1019.3 1019.3 0.0
11/07:00am 14.6 14.1 9.4 71 2.7 NE 2 6 1 3 1019.0 1019.0 0.0
11/06:30am 13.1 11.7 9.4 78 1.9 ESE 7 11 4 6 1018.7 1018.7 0.0
11/06:00am 11.6 9.6 8.5 81 1.5 ESE 9 11 5 6 1018.6 1018.6 0.0
11/05:30am 11.5 9.9 7.8 78 1.8 SE 6 9 3 5 1018.3 1018.3 0.0
11/05:00am 11.3 10.7 7.4 77 1.9 CALM 0 4 0 2 1018.3 1018.3 0.0
11/04:30am 11.5 9.9 7.8 78 1.8 SSW 6 6 3 3 1018.2 1018.2 0.0
11/04:00am 11.0 9.0 7.3 78 1.8 SSW 7 11 4 6 1018.3 1018.3 0.0
11/03:30am 12.1 9.9 8.0 76 2.0 ESE 9 13 5 7 1018.3 1018.3 0.0
11/03:00am 12.3 10.4 7.6 73 2.3 E 7 13 4 7 1018.5 1018.5 0.0
11/02:30am 12.4 9.8 7.9 74 2.2 ESE 11 15 6 8 1018.5 1018.5 0.0
11/02:00am 13.2 10.6 7.6 69 2.7 SE 11 17 6 9 1018.8 1018.8 0.0
11/01:30am 12.8 10.3 8.1 73 2.3 ESE 11 17 6 9 1018.7 1018.7 0.0
11/01:00am 12.5 10.2 7.6 72 2.4 SE 9 13 5 7 1018.9 1018.9 0.0
11/12:30am 12.9 10.3 7.8 71 2.5 SE 11 15 6 8 1019.1 1019.1 0.0
11/12:00am 13.4 10.4 7.8 69 2.7 SE 13 19 7 10 1019.2 1019.2 0.0
 
Date/Time
CDT
Temp
°C
App
Temp
°C
Dew
Point
°C
Rel
Hum
%
Delta-T
°C
Wind Press
QNH
hPa
Press
MSL
hPa
Rain since
9am
mm
Dir  Spd
km/h
Gust
km/h
Spd
kts
Gust
kts
10/11:30pm 13.8 10.8 7.8 67 3.0 SE 13 15 7 8 1019.4 1019.4 0.0
10/11:00pm 14.4 11.0 7.5 63 3.4 ESE 15 19 8 10 1019.6 1019.6 0.0
10/10:30pm 14.9 11.1 7.7 62 3.6 ESE 17 24 9 13 1019.7 1019.7 0.0
10/10:00pm 15.4 11.6 7.4 59 4.0 ESE 17 20 9 11 1019.7 1019.7 0.0
10/09:30pm 16.0 12.1 7.0 55 4.4 SE 17 24 9 13 1019.3 1019.3 0.0

Latest Capital City Observations: Canberra | Sydney | Melbourne | Brisbane | Adelaide | Perth | Hobart | Darwin

Other formats

Comma delimited format used in spreadsheet applications
http://www.bom.gov.au/fwo/IDS60901/IDS60901.95677.axf

JavaScript Object Notation format (JSON) in row-major order
http://www.bom.gov.au/fwo/IDS60901/IDS60901.95677.json

Data quality

Most of these data are generated automatically and are frequently updated. Quality checks on data are not normally performed. It is possible for incorrect values to appear. Refer to information at About Latest Weather Observations and please check the disclaimer before using these data.